Time;durP1;ratioP1;P1;durP2;ratioP2;P2;SDS_P1;SDS_P2;PMS_P1;PMS_P2;Temp;Humidity;BMP_temperature;BMP_pressure;BME280_temperature;BME280_humidity;BME280_pressure;Samples;Min_cycle;Max_cycle;Signal;HPM_P1;HPM_P2
2023/03/10 00:00:07;;;;;;;3.00;2.80;;;;;;;2.01;100.00;98120.71;106041;1256;60885;-84
2023/03/10 00:02:36;;;;;;;2.90;2.70;;;;;;;1.99;100.00;98122.16;105940;1260;60394;-86
2023/03/10 00:05:06;;;;;;;2.90;2.60;;;;;;;1.88;100.00;98123.94;105960;1255;73488;-85
2023/03/10 00:07:38;;;;;;;2.90;2.70;;;;;;;1.82;100.00;98115.16;105942;1256;69269;-83
2023/03/10 00:10:09;;;;;;;2.50;2.40;;;;;;;1.80;100.00;98110.29;106139;1260;73259;-83
2023/03/10 00:12:39;;;;;;;4.10;3.80;;;;;;;1.82;100.00;98121.35;105845;1260;60463;-83
2023/03/10 00:15:08;;;;;;;3.20;3.00;;;;;;;1.80;100.00;98130.39;105813;1256;60454;-81
2023/03/10 00:17:37;;;;;;;3.30;3.00;;;;;;;1.79;100.00;98136.60;106080;1255;75628;-82
2023/03/10 00:20:10;;;;;;;3.60;2.70;;;;;;;1.77;100.00;98144.47;105927;1260;68756;-80
2023/03/10 00:22:40;;;;;;;3.20;3.00;;;;;;;1.71;100.00;98144.45;106270;1260;73575;-81
2023/03/10 00:25:09;;;;;;;2.70;2.50;;;;;;;1.70;100.00;98139.98;105698;1255;61953;-77
2023/03/10 00:27:38;;;;;;;3.00;2.70;;;;;;;1.66;100.00;98144.81;105923;1256;61914;-79
2023/03/10 00:30:08;;;;;;;5.80;4.20;;;;;;;1.61;100.00;98132.94;105662;1261;76069;-77
2023/03/10 00:32:37;;;;;;;3.10;2.80;;;;;;;1.60;100.00;98131.56;105921;1256;69940;-77
2023/03/10 00:35:06;;;;;;;2.70;2.50;;;;;;;1.57;100.00;98140.63;105841;1255;73513;-82
2023/03/10 00:37:37;;;;;;;3.20;3.00;;;;;;;1.51;100.00;98147.33;105678;1256;60499;-80
2023/03/10 00:40:09;;;;;;;3.10;2.90;;;;;;;1.44;100.00;98150.39;105823;1256;60480;-80
2023/03/10 00:42:40;;;;;;;2.60;2.40;;;;;;;1.38;100.00;98156.32;106007;1256;72198;-76
2023/03/10 00:45:12;;;;;;;;;;;;;;;1.33;100.00;98154.63;105945;1256;67126;-77
2023/03/10 00:47:41;;;;;;;3.10;2.90;;;;;;;1.26;100.00;98157.83;105727;1256;74397;-76
2023/03/10 00:50:10;;;;;;;3.40;3.10;;;;;;;1.28;100.00;98161.64;106057;1256;60567;-81
2023/03/10 00:52:39;;;;;;;3.20;3.00;;;;;;;1.26;100.00;98171.77;105694;1256;60981;-85
2023/03/10 00:55:08;;;;;;;2.40;2.30;;;;;;;1.28;100.00;98184.05;105672;1255;74706;-83
2023/03/10 00:57:37;;;;;;;2.10;2.00;;;;;;;1.29;100.00;98202.52;105871;1256;69767;-84
2023/03/10 01:00:07;;;;;;;2.30;2.20;;;;;;;1.29;100.00;98212.30;105805;1256;73270;-86
2023/03/10 01:02:37;;;;;;;2.30;2.10;;;;;;;1.28;100.00;98228.86;105914;1256;61749;-85
2023/03/10 01:05:05;;;;;;;2.70;2.50;;;;;;;1.30;100.00;98234.57;105818;1256;61755;-81
2023/03/10 01:07:35;;;;;;;3.00;2.80;;;;;;;1.29;100.00;98252.84;105861;1260;75451;-85
2023/03/10 01:10:05;;;;;;;3.10;2.90;;;;;;;1.29;100.00;98256.80;105680;1256;68034;-78
2023/03/10 01:12:34;;;;;;;2.50;2.30;;;;;;;1.30;100.00;98262.02;105891;1256;71854;-78
2023/03/10 01:15:02;;;;;;;3.00;2.80;;;;;;;1.31;100.00;98265.59;105811;1260;60563;-79
2023/03/10 01:17:31;;;;;;;3.00;2.80;;;;;;;1.33;100.00;98275.43;105827;1260;62138;-76
2023/03/10 01:20:00;;;;;;;2.80;2.60;;;;;;;1.26;100.00;98272.64;105671;1260;74370;-76
2023/03/10 01:22:29;;;;;;;2.70;2.50;;;;;;;1.24;100.00;98280.11;105821;1256;67176;-81
2023/03/10 01:24:57;;;;;;;3.30;3.00;;;;;;;1.22;100.00;98287.77;105725;1256;73682;-76
2023/03/10 01:27:26;;;;;;;2.70;2.50;;;;;;;1.22;100.00;98301.08;105826;1256;61807;-77
2023/03/10 01:29:54;;;;;;;4.50;2.50;;;;;;;1.24;100.00;98301.64;105794;1255;62121;-77
2023/03/10 01:32:23;;;;;;;3.00;2.70;;;;;;;1.20;100.00;98306.77;106040;1256;75440;-84
2023/03/10 01:34:51;;;;;;;3.00;2.70;;;;;;;1.15;100.00;98312.38;105724;1256;69442;-84
2023/03/10 01:37:20;;;;;;;2.20;2.10;;;;;;;1.08;100.00;98323.79;105629;1256;73413;-78
2023/03/10 01:39:48;;;;;;;4.50;2.90;;;;;;;0.97;100.00;98323.47;105970;1255;62032;-80
2023/03/10 01:42:16;;;;;;;3.00;2.80;;;;;;;0.95;100.00;98321.27;105747;1255;60433;-80
2023/03/10 01:45:13;;;;;;;3.30;3.00;;;;;;;0.95;100.00;98321.41;105740;1260;73618;-83
2023/03/10 01:47:42;;;;;;;3.80;3.40;;;;;;;0.96;100.00;98334.73;105514;1258;70273;-76
2023/03/10 01:50:13;;;;;;;2.80;2.60;;;;;;;0.98;100.00;98337.79;105636;1256;72696;-81
2023/03/10 01:52:43;;;;;;;3.00;2.80;;;;;;;0.99;100.00;98337.42;105631;1261;60600;-81
2023/03/10 01:55:17;;;;;;;3.10;2.70;;;;;;;0.98;100.00;98338.90;105739;1260;60442;-79
2023/03/10 01:57:51;;;;;;;3.30;3.00;;;;;;;0.97;100.00;98347.09;105672;1257;74832;-78
2023/03/10 02:00:20;;;;;;;3.40;3.20;;;;;;;0.92;100.00;98358.34;105476;1258;67963;-81
2023/03/10 02:02:55;;;;;;;2.70;2.50;;;;;;;0.85;100.00;98361.79;105278;1263;72999;-82
2023/03/10 02:05:23;;;;;;;6.40;3.50;;;;;;;0.84;100.00;98368.08;105441;1257;62043;-82
2023/03/10 02:07:55;;;;;;;2.80;2.60;;;;;;;0.84;100.00;98379.56;105475;1257;60556;-78
2023/03/10 02:10:24;;;;;;;3.00;2.80;;;;;;;0.86;100.00;98384.67;105645;1260;74736;-77
2023/03/10 02:12:52;;;;;;;2.70;2.50;;;;;;;0.87;100.00;98395.77;105403;1257;68250;-77
2023/03/10 02:15:21;;;;;;;3.70;3.40;;;;;;;0.86;100.00;98395.09;105540;1264;72620;-77
2023/03/10 02:17:51;;;;;;;4.10;2.90;;;;;;;0.83;100.00;98396.78;105887;1259;62831;-76
2023/03/10 02:20:38;;;;;;;2.90;2.50;;;;;;;0.80;100.00;98392.38;105724;1256;60462;-72
2023/03/10 02:23:08;;;;;;;3.30;3.00;;;;;;;0.77;100.00;98399.95;105789;1260;73993;-72
2023/03/10 02:25:43;;;;;;;5.30;3.10;;;;;;;0.77;100.00;98407.31;105786;1261;68984;-74
2023/03/10 02:28:13;;;;;;;4.70;3.60;;;;;;;0.77;100.00;98418.10;105664;1256;73878;-75
2023/03/10 02:30:49;;;;;;;4.80;4.30;;;;;;;0.74;100.00;98427.44;105696;1256;61110;-74
2023/03/10 02:33:22;;;;;;;3.00;2.80;;;;;;;0.76;100.00;98440.98;105787;1261;60565;-77
2023/03/10 02:35:51;;;;;;;3.40;2.60;;;;;;;0.79;100.00;98443.52;105638;1258;76010;-72
2023/03/10 02:38:21;;;;;;;2.20;2.10;;;;;;;0.81;100.00;98453.80;105667;1256;67111;-80
2023/03/10 02:40:50;;;;;;;2.60;2.40;;;;;;;0.84;100.00;98463.10;105694;1256;74419;-79
2023/03/10 02:43:30;;;;;;;;;;;;;;;0.85;100.00;98467.77;105550;1255;60438;-76
2023/03/10 02:46:16;;;;;;;3.30;2.30;;;;;;;0.82;100.00;98474.30;105616;1256;60808;-78
2023/03/10 02:48:47;;;;;;;2.50;2.30;;;;;;;0.79;100.00;98476.37;105901;1256;75613;-80
2023/03/10 02:51:23;;;;;;;2.40;2.10;;;;;;;0.76;100.00;98472.01;105676;1256;68774;-78
2023/03/10 02:53:52;;;;;;;2.30;2.20;;;;;;;0.73;100.00;98485.14;105737;1256;74157;-79
2023/03/10 02:56:20;;;;;;;2.50;2.30;;;;;;;0.71;100.00;98486.52;105688;1256;60485;-76
2023/03/10 02:58:49;;;;;;;2.50;2.20;;;;;;;0.69;100.00;98478.66;105626;1255;60510;-82
2023/03/10 03:01:19;;;;;;;2.60;2.40;;;;;;;0.62;100.00;98489.13;105109;1261;1003788;-84
2023/03/10 03:03:48;;;;;;;4.10;2.40;;;;;;;0.55;100.00;98482.55;105812;1256;67933;-83
2023/03/10 03:06:16;;;;;;;2.70;2.50;;;;;;;0.55;100.00;98487.60;105672;1256;74542;-82
2023/03/10 03:08:45;;;;;;;3.30;3.00;;;;;;;0.49;100.00;98485.08;105979;1256;60442;-82
2023/03/10 03:11:16;;;;;;;7.00;5.90;;;;;;;0.44;100.00;98492.23;105691;1255;60747;-84
2023/03/10 03:13:44;;;;;;;7.20;4.00;;;;;;;0.43;100.00;98492.45;105672;1256;72771;-79
2023/03/10 03:16:12;;;;;;;4.40;3.60;;;;;;;0.40;100.00;98500.27;105826;1259;68445;-82
2023/03/10 03:18:42;;;;;;;3.40;3.00;;;;;;;0.37;100.00;98504.65;105788;1256;73487;-81
2023/03/10 03:21:16;;;;;;;7.30;3.60;;;;;;;0.35;100.00;98509.13;105744;1256;62434;-73
2023/03/10 03:23:45;;;;;;;4.10;2.60;;;;;;;0.37;100.00;98516.17;105955;1256;60504;-79
2023/03/10 03:26:19;;;;;;;3.80;3.10;;;;;;;0.37;100.00;98521.58;105675;1260;74595;-78
2023/03/10 03:28:47;;;;;;;4.90;3.40;;;;;;;0.40;100.00;98520.73;105770;1261;70249;-78
2023/03/10 03:31:21;;;;;;;4.30;3.10;;;;;;;0.39;100.00;98520.30;105584;1260;73559;-85
2023/03/10 03:33:51;;;;;;;4.40;3.30;;;;;;;0.31;100.00;98517.71;105869;1256;61915;-85
2023/03/10 03:36:20;;;;;;;3.80;2.40;;;;;;;0.27;100.00;98525.99;105967;1255;60716;-86
2023/03/10 03:38:48;;;;;;;8.20;4.30;;;;;;;0.22;100.00;98533.91;105750;1255;74998;-84
2023/03/10 03:41:17;;;;;;;6.30;4.80;;;;;;;0.24;100.00;98537.02;105708;1255;69455;-78
2023/03/10 03:43:47;;;;;;;5.60;5.00;;;;;;;0.28;100.00;98547.34;105703;1259;73230;-78
2023/03/10 03:46:16;;;;;;;9.70;4.60;;;;;;;0.28;100.00;98543.91;105760;1256;60451;-86
2023/03/10 03:48:45;;;;;;;4.10;3.80;;;;;;;0.24;100.00;98555.38;105930;1254;60466;-85
2023/03/10 03:51:13;;;;;;;8.60;5.40;;;;;;;0.26;100.00;98552.95;105616;1256;75587;-85
2023/03/10 03:53:43;;;;;;;4.20;3.00;;;;;;;0.29;100.00;98561.48;105756;1256;68069;-84
2023/03/10 03:56:12;;;;;;;7.50;5.40;;;;;;;0.28;100.00;98568.00;105880;1260;72422;-86
2023/03/10 03:58:43;;;;;;;5.50;4.40;;;;;;;0.26;100.00;98568.61;105938;1256;60539;-86
2023/03/10 04:01:12;;;;;;;4.70;3.60;;;;;;;0.28;100.00;98575.09;105798;1256;61346;-86
2023/03/10 04:03:44;;;;;;;6.30;5.70;;;;;;;0.24;100.00;98573.73;105656;1256;75542;-82
2023/03/10 04:06:14;;;;;;;6.90;5.00;;;;;;;0.21;100.00;98579.71;105671;1261;67235;-81
2023/03/10 04:08:43;;;;;;;8.20;5.30;;;;;;;0.20;100.00;98586.63;105661;1257;74850;-82
2023/03/10 04:11:12;;;;;;;8.70;5.60;;;;;;;0.27;100.00;98591.02;105756;1255;60526;-85
2023/03/10 04:13:45;;;;;;;7.40;4.70;;;;;;;0.40;100.00;98597.23;105737;1256;62269;-83
2023/03/10 04:16:15;;;;;;;5.00;4.10;;;;;;;0.52;100.00;98604.33;105688;1256;75739;-82
2023/03/10 04:18:43;;;;;;;3.70;3.30;;;;;;;0.59;100.00;98610.27;105658;1256;69915;-87
2023/03/10 04:21:13;;;;;;;8.50;4.20;;;;;;;0.57;100.00;98614.17;105575;1256;73395;-84
2023/03/10 04:23:42;;;;;;;6.60;4.00;;;;;;;0.51;100.00;98613.08;105542;1256;61938;-84
2023/03/10 04:26:19;;;;;;;5.30;2.60;;;;;;;0.50;100.00;98610.44;105651;1255;61040;-85
2023/03/10 04:28:47;;;;;;;5.10;2.50;;;;;;;0.50;100.00;98604.79;105792;1256;73524;-87
2023/03/10 04:31:17;;;;;;;5.10;2.90;;;;;;;0.48;100.00;98611.79;105654;1256;69332;-85
2023/03/10 04:33:48;;;;;;;4.20;3.60;;;;;;;0.44;100.00;98615.06;105481;1264;74554;-83
2023/03/10 04:36:17;;;;;;;5.00;3.30;;;;;;;0.44;100.00;98620.39;105844;1261;60442;-84
2023/03/10 04:38:50;;;;;;;3.70;3.10;;;;;;;0.46;100.00;98624.58;105608;1261;60562;-86
2023/03/10 04:41:19;;;;;;;4.20;3.50;;;;;;;0.49;100.00;98629.08;105694;1255;74142;-86
2023/03/10 04:43:56;;;;;;;3.00;2.80;;;;;;;0.45;100.00;98632.59;105534;1256;69832;-83
2023/03/10 04:46:30;;;;;;;6.30;3.90;;;;;;;0.40;100.00;98628.91;105521;1257;73535;-87
2023/03/10 04:48:58;;;;;;;3.00;2.80;;;;;;;0.41;100.00;98635.27;105875;1255;61675;-84
2023/03/10 04:51:27;;;;;;;2.70;2.50;;;;;;;0.44;100.00;98637.04;105955;1260;60373;-85
2023/03/10 04:53:56;;;;;;;5.70;3.60;;;;;;;0.47;100.00;98642.61;105704;1256;74840;-83
2023/03/10 04:56:28;;;;;;;4.50;3.50;;;;;;;0.45;100.00;98653.42;105662;1261;67885;-81
2023/03/10 04:58:56;;;;;;;7.40;4.90;;;;;;;0.47;100.00;98650.98;105623;1261;74471;-79
2023/03/10 05:01:25;;;;;;;6.80;4.20;;;;;;;0.47;100.00;98652.08;105658;1257;60471;-77
2023/03/10 05:03:59;;;;;;;8.50;6.50;;;;;;;0.44;100.00;98654.30;105659;1256;60397;-80
2023/03/10 05:06:30;;;;;;;4.00;3.60;;;;;;;0.42;100.00;98656.02;105666;1260;74779;-78
2023/03/10 05:09:12;;;;;;;4.40;4.00;;;;;;;0.46;100.00;98652.13;105836;1256;68135;-83
2023/03/10 05:11:45;;;;;;;4.10;2.90;;;;;;;0.54;100.00;98652.25;105787;1256;73318;-83
2023/03/10 05:14:16;;;;;;;5.50;3.30;;;;;;;0.57;100.00;98650.89;105795;1256;60452;-88
2023/03/10 05:16:47;;;;;;;5.40;4.20;;;;;;;0.57;100.00;98664.90;105709;1260;60523;-87
2023/03/10 05:19:16;;;;;;;4.70;2.70;;;;;;;0.53;100.00;98670.80;105637;1256;73488;-83
2023/03/10 05:21:48;;;;;;;6.00;3.80;;;;;;;0.40;100.00;98661.84;105583;1263;67845;-81
2023/03/10 05:24:17;;;;;;;3.70;3.10;;;;;;;0.31;100.00;98658.48;105503;1256;73476;-82
2023/03/10 05:26:46;;;;;;;3.50;2.90;;;;;;;0.27;100.00;98664.73;105634;1258;61960;-83
2023/03/10 05:29:19;;;;;;;3.10;2.80;;;;;;;0.26;100.00;98673.16;105556;1261;60664;-80
2023/03/10 05:31:52;;;;;;;4.00;3.10;;;;;;;0.26;100.00;98675.59;105694;1260;75415;-84
2023/03/10 05:34:30;;;;;;;5.80;4.90;;;;;;;0.24;100.00;98677.39;105660;1256;69806;-85
2023/03/10 05:37:02;;;;;;;4.00;3.50;;;;;;;0.22;100.00;98677.80;105614;1257;73502;-83
2023/03/10 05:39:31;;;;;;;6.80;3.00;;;;;;;0.23;100.00;98682.81;105624;1261;61029;-81
2023/03/10 05:42:03;;;;;;;3.70;3.20;;;;;;;0.27;100.00;98686.66;105591;1260;60626;-82
2023/03/10 05:44:33;;;;;;;3.00;2.30;;;;;;;0.25;100.00;98693.82;105693;1260;74480;-81
2023/03/10 05:47:08;;;;;;;3.50;3.10;;;;;;;0.30;100.00;98698.73;105689;1256;67236;-79
2023/03/10 05:49:37;;;;;;;2.70;2.40;;;;;;;0.37;100.00;98698.91;105553;1256;73699;-80
2023/03/10 05:52:06;;;;;;;3.80;2.80;;;;;;;0.38;100.00;98705.96;105950;1262;60494;-85
2023/03/10 05:54:35;;;;;;;3.60;3.30;;;;;;;0.39;100.00;98712.65;105853;1255;61748;-85
2023/03/10 05:57:03;;;;;;;5.70;3.20;;;;;;;0.42;100.00;98713.83;105504;1256;75406;-81
2023/03/10 05:59:32;;;;;;;3.80;2.70;;;;;;;0.46;100.00;98713.98;105438;1255;67397;-85
2023/03/10 06:02:00;;;;;;;3.00;2.70;;;;;;;0.49;100.00;98720.80;105669;1261;74552;-84
2023/03/10 06:04:32;;;;;;;8.10;5.00;;;;;;;0.52;100.00;98732.08;105721;1256;61293;-79
2023/03/10 06:07:02;;;;;;;7.90;4.40;;;;;;;0.55;100.00;98736.32;105780;1256;61384;-86
2023/03/10 06:09:31;;;;;;;3.60;3.20;;;;;;;0.61;100.00;98737.81;105712;1261;75719;-83
2023/03/10 06:12:04;;;;;;;;;;;;;;;0.64;100.00;98739.75;105759;1256;68235;-87
2023/03/10 06:14:32;;;;;;;3.40;2.90;;;;;;;0.58;99.69;98740.34;105754;1256;73525;-87
2023/03/10 06:17:00;;;;;;;4.20;3.20;;;;;;;0.50;99.51;98740.20;105679;1256;62932;-83
2023/03/10 06:19:35;;;;;;;7.00;3.50;;;;;;;0.48;99.51;98740.70;105588;1264;60530;-82
2023/03/10 06:22:03;;;;;;;5.80;3.60;;;;;;;0.46;99.75;98748.32;105803;1260;75551;-78
2023/03/10 06:24:31;;;;;;;9.80;3.70;;;;;;;0.46;99.23;98750.84;105634;1256;68367;-79
2023/03/10 06:27:00;;;;;;;3.30;3.10;;;;;;;0.46;99.53;98754.95;105937;1261;74874;-80
2023/03/10 06:29:29;;;;;;;5.70;3.80;;;;;;;0.50;99.54;98761.90;105859;1255;60708;-79
2023/03/10 06:31:57;;;;;;;3.20;3.00;;;;;;;0.50;99.11;98764.54;105247;1256;634631;-77
2023/03/10 06:34:26;;;;;;;3.90;3.40;;;;;;;0.52;99.31;98765.68;105996;1259;76178;-79
2023/03/10 06:36:54;;;;;;;5.40;3.40;;;;;;;0.58;99.17;98758.54;105650;1261;68563;-79
2023/03/10 06:39:22;;;;;;;4.10;3.40;;;;;;;0.60;98.79;98752.27;105619;1256;74133;-80
2023/03/10 06:41:55;;;;;;;4.30;3.00;;;;;;;0.60;97.99;98756.83;105732;1261;60564;-81
2023/03/10 06:44:23;;;;;;;6.20;4.00;;;;;;;0.61;97.89;98757.91;105539;1256;60361;-82
2023/03/10 06:46:55;;;;;;;5.30;2.70;;;;;;;0.63;97.55;98759.70;105580;1261;75676;-79
2023/03/10 06:49:28;;;;;;;4.40;2.90;;;;;;;0.66;97.32;98760.63;105756;1256;68346;-83
2023/03/10 06:51:56;;;;;;;;;;;;;;;0.66;97.46;98761.61;105588;1256;74045;-85
2023/03/10 06:54:25;;;;;;;3.00;2.60;;;;;;;0.72;97.48;98756.69;105928;1256;62271;-82
2023/03/10 06:56:53;;;;;;;3.20;2.80;;;;;;;0.80;96.98;98758.29;105658;1261;61841;-80
2023/03/10 06:59:26;;;;;;;5.90;3.20;;;;;;;0.83;95.78;98759.13;105739;1262;75565;-79
2023/03/10 07:01:54;;;;;;;4.60;4.00;;;;;;;0.85;95.64;98760.95;105736;1256;68649;-81
2023/03/10 07:04:22;;;;;;;7.30;3.40;;;;;;;0.87;94.89;98753.45;105611;1255;74275;-81
2023/03/10 07:06:56;;;;;;;5.60;3.00;;;;;;;0.84;94.73;98759.09;105814;1256;61408;-81
2023/03/10 07:09:25;;;;;;;3.10;2.80;;;;;;;0.84;94.26;98765.69;105926;1262;60453;-81
2023/03/10 07:11:53;;;;;;;4.50;2.90;;;;;;;0.81;93.61;98766.77;105776;1260;73617;-80
2023/03/10 07:14:21;;;;;;;8.30;4.00;;;;;;;0.84;93.62;98765.73;105669;1256;70019;-81
2023/03/10 07:16:49;;;;;;;5.60;4.70;;;;;;;0.87;93.84;98762.90;105828;1256;70896;-82
2023/03/10 07:19:18;;;;;;;9.10;3.80;;;;;;;0.95;93.98;98769.26;105766;1256;60912;-79
2023/03/10 07:21:52;;;;;;;7.80;4.40;;;;;;;0.95;93.30;98766.55;105750;1256;61712;-79
2023/03/10 07:24:21;;;;;;;5.10;3.90;;;;;;;0.95;93.56;98758.03;105645;1262;75677;-81
2023/03/10 07:26:49;;;;;;;6.00;4.00;;;;;;;0.96;93.53;98754.45;105717;1261;69836;-83
2023/03/10 07:29:17;;;;;;;5.50;4.30;;;;;;;0.98;93.60;98749.53;105757;1256;73492;-81
2023/03/10 07:31:46;;;;;;;6.40;4.30;;;;;;;1.01;93.73;98750.54;105705;1256;60424;-81
2023/03/10 07:34:15;;;;;;;8.90;5.00;;;;;;;1.07;93.52;98757.76;105837;1257;61964;-87
2023/03/10 07:36:43;;;;;;;5.90;4.50;;;;;;;1.08;92.72;98763.83;105893;1260;75695;-85
2023/03/10 07:39:11;;;;;;;10.80;5.10;;;;;;;1.08;91.95;98772.91;105647;1263;67523;-87
2023/03/10 07:41:39;;;;;;;6.10;4.40;;;;;;;1.07;91.89;98780.03;105569;1260;71889;-84
2023/03/10 07:44:09;;;;;;;7.60;4.30;;;;;;;1.01;91.45;98788.17;105786;1257;61301;-86
2023/03/10 07:46:38;;;;;;;10.50;6.10;;;;;;;0.96;91.67;98796.66;105687;1260;62164;-84
2023/03/10 07:49:06;;;;;;;10.70;8.50;;;;;;;0.93;91.75;98804.90;105487;1256;73031;-83
2023/03/10 07:51:36;;;;;;;8.30;6.20;;;;;;;0.97;92.35;98809.12;105722;1256;67724;-82
2023/03/10 07:54:04;;;;;;;6.10;5.50;;;;;;;1.02;92.47;98811.42;105864;1261;74015;-80
2023/03/10 07:56:37;;;;;;;6.50;5.60;;;;;;;1.01;91.84;98819.17;105791;1256;61003;-85
2023/03/10 07:59:05;;;;;;;8.30;5.50;;;;;;;1.02;92.26;98832.19;105846;1260;61118;-85
2023/03/10 08:01:34;;;;;;;6.10;4.30;;;;;;;1.06;92.15;98837.36;105746;1260;75608;-79
2023/03/10 08:04:02;;;;;;;6.70;4.60;;;;;;;1.04;91.54;98832.85;105848;1257;67936;-80
2023/03/10 08:06:32;;;;;;;4.60;3.40;;;;;;;1.04;91.85;98836.52;105653;1260;71424;-80
2023/03/10 08:09:03;;;;;;;4.70;3.90;;;;;;;1.10;92.03;98837.50;105994;1260;61377;-82
2023/03/10 08:11:31;;;;;;;5.40;4.70;;;;;;;1.18;92.05;98834.41;105500;1263;60803;-82
2023/03/10 08:14:00;;;;;;;10.50;6.10;;;;;;;1.16;91.45;98830.10;105692;1261;75503;-87
2023/03/10 08:16:30;;;;;;;13.20;8.60;;;;;;;1.14;91.53;98834.40;105656;1255;67142;-84
2023/03/10 08:18:58;;;;;;;12.20;10.80;;;;;;;1.14;91.45;98835.52;105913;1256;74332;-83
2023/03/10 08:21:27;;;;;;;10.00;8.50;;;;;;;1.22;92.00;98829.46;105719;1256;60706;-84
2023/03/10 08:23:56;;;;;;;9.80;5.30;;;;;;;1.32;92.05;98832.52;105961;1260;62295;-80
2023/03/10 08:26:24;;;;;;;7.80;6.30;;;;;;;1.36;91.84;98836.32;106042;1257;75661;-83
2023/03/10 08:28:52;;;;;;;6.40;5.50;;;;;;;1.35;91.04;98836.54;105799;1263;65722;-81
2023/03/10 08:31:21;;;;;;;7.20;5.40;;;;;;;1.33;90.84;98836.42;105705;1258;72655;-79
2023/03/10 08:33:49;;;;;;;13.40;6.60;;;;;;;1.35;90.74;98825.65;105884;1256;62869;-83
2023/03/10 08:36:23;;;;;;;13.20;8.50;;;;;;;1.40;90.94;98821.83;105872;1256;60697;-80
2023/03/10 08:38:52;;;;;;;13.00;8.50;;;;;;;1.44;90.58;98838.03;105740;1258;74267;-78
2023/03/10 08:41:23;;;;;;;8.40;6.00;;;;;;;1.48;90.63;98831.38;105843;1257;69415;-83
2023/03/10 08:43:52;;;;;;;7.40;6.20;;;;;;;1.51;90.33;98838.65;105629;1261;73349;-85
2023/03/10 08:46:23;;;;;;;9.00;6.60;;;;;;;1.52;89.77;98835.15;105818;1256;60531;-82
2023/03/10 08:48:52;;;;;;;9.90;5.70;;;;;;;1.52;89.23;98828.17;105916;1256;60738;-81
2023/03/10 08:51:20;;;;;;;7.00;4.70;;;;;;;1.52;88.95;98832.79;105805;1261;73891;-84
2023/03/10 08:53:49;;;;;;;11.60;6.50;;;;;;;1.53;89.05;98820.39;105970;1260;67893;-83
2023/03/10 08:56:18;;;;;;;13.00;6.00;;;;;;;1.54;88.70;98811.52;105870;1257;72452;-83
2023/03/10 08:58:47;;;;;;;8.10;6.30;;;;;;;1.60;89.40;98808.76;105715;1260;60317;-83
2023/03/10 09:01:17;;;;;;;10.70;6.40;;;;;;;1.71;89.70;98808.11;105828;1260;62079;-86
2023/03/10 09:03:46;;;;;;;6.10;5.30;;;;;;;1.76;89.13;98799.23;105732;1263;73402;-84
2023/03/10 09:06:14;;;;;;;5.40;4.80;;;;;;;1.76;88.95;98803.72;105979;1257;67108;-82
2023/03/10 09:08:44;;;;;;;13.20;8.20;;;;;;;1.76;89.02;98807.34;105759;1261;71483;-81
2023/03/10 09:11:21;;;;;;;18.50;9.90;;;;;;;1.76;89.20;98816.20;105821;1262;60492;-82
2023/03/10 09:13:49;;;;;;;8.60;6.40;;;;;;;1.78;89.14;98821.11;105866;1257;60485;-80
2023/03/10 09:16:19;;;;;;;9.80;7.30;;;;;;;1.75;88.58;98827.77;105828;1261;74773;-83
2023/03/10 09:18:47;;;;;;;8.60;5.40;;;;;;;1.74;88.99;98839.41;105748;1260;69458;-82
2023/03/10 09:21:16;;;;;;;6.70;5.10;;;;;;;1.73;88.56;98835.32;105604;1260;73977;-80
2023/03/10 09:23:46;;;;;;;7.30;4.80;;;;;;;1.76;88.56;98827.45;105641;1270;60552;-79
2023/03/10 09:26:14;;;;;;;5.00;3.60;;;;;;;1.87;88.89;98823.05;105840;1257;60532;-82
2023/03/10 09:28:49;;;;;;;5.10;4.60;;;;;;;1.96;88.60;98818.73;105654;1262;74198;-81
2023/03/10 09:31:24;;;;;;;4.40;4.00;;;;;;;2.03;87.98;98813.95;105653;1262;69412;-82
2023/03/10 09:33:53;;;;;;;12.20;7.40;;;;;;;2.08;87.71;98803.05;105601;1260;74086;-82
2023/03/10 09:36:23;;;;;;;6.70;5.50;;;;;;;2.11;88.14;98800.58;105785;1256;61776;-80
2023/03/10 09:38:51;;;;;;;9.00;5.70;;;;;;;2.17;88.28;98810.73;105685;1260;61142;-82
2023/03/10 09:41:36;;;;;;;6.60;5.40;;;;;;;2.23;87.30;98808.72;105592;1263;74273;-82
2023/03/10 09:44:21;;;;;;;6.20;4.80;;;;;;;2.24;86.98;98812.44;105815;1260;68709;-79
2023/03/10 09:46:49;;;;;;;5.60;4.80;;;;;;;2.27;86.81;98817.66;105409;1262;71496;-79
2023/03/10 09:49:28;;;;;;;5.30;3.70;;;;;;;2.28;86.76;98816.11;105602;1257;61055;-81
2023/03/10 09:51:57;;;;;;;4.10;3.30;;;;;;;2.29;86.25;98807.61;105690;1257;60415;-81
2023/03/10 09:54:39;;;;;;;4.10;3.80;;;;;;;2.36;86.62;98815.50;105619;1257;73874;-80
2023/03/10 09:57:13;;;;;;;6.50;5.30;;;;;;;2.44;86.61;98820.00;105692;1260;67324;-79
2023/03/10 09:59:49;;;;;;;8.70;5.90;;;;;;;2.53;86.69;98822.67;105689;1260;74952;-79
2023/03/10 10:02:35;;;;;;;6.50;5.10;;;;;;;2.58;85.09;98835.63;105727;1260;60543;-80
2023/03/10 10:05:10;;;;;;;9.20;5.20;;;;;;;2.54;85.11;98832.64;105842;1261;60475;-84
2023/03/10 10:07:45;;;;;;;5.10;4.40;;;;;;;2.54;85.32;98828.02;105747;1257;73349;-86
2023/03/10 10:10:17;;;;;;;38.50;20.90;;;;;;;2.60;85.05;98822.98;105573;1263;67260;-87
2023/03/10 10:12:48;;;;;;;18.30;11.80;;;;;;;2.63;85.33;98803.92;105590;1269;72240;-84
2023/03/10 10:15:20;;;;;;;17.30;7.80;;;;;;;2.68;85.44;98800.94;105627;1256;61133;-83
2023/03/10 10:18:04;;;;;;;13.60;10.80;;;;;;;2.70;85.27;98792.12;105736;1262;61928;-79
2023/03/10 10:20:57;;;;;;;11.30;8.50;;;;;;;2.75;85.29;98784.52;105708;1260;73696;-76
2023/03/10 10:23:47;;;;;;;10.80;7.30;;;;;;;2.83;85.69;98758.94;105286;1264;69465;-75
2023/03/10 10:26:18;;;;;;;6.70;5.70;;;;;;;2.95;85.73;98751.05;105102;1260;72764;-77
2023/03/10 10:28:53;;;;;;;7.40;5.60;;;;;;;3.03;84.49;98760.73;105650;1255;61109;-79
2023/03/10 10:31:24;;;;;;;9.00;6.30;;;;;;;3.09;84.08;98771.35;105903;1260;61197;-80
2023/03/10 10:33:54;;;;;;;12.40;7.40;;;;;;;3.19;84.63;98775.08;105666;1260;74771;-79
2023/03/10 10:36:26;;;;;;;8.60;5.50;;;;;;;3.30;84.31;98778.02;105438;1260;66967;-80
2023/03/10 10:38:58;;;;;;;10.20;6.10;;;;;;;3.34;83.80;98788.20;105383;1259;73867;-77
2023/03/10 10:41:28;;;;;;;7.90;5.90;;;;;;;3.35;83.58;98797.95;105777;1256;60487;-78
2023/03/10 10:44:05;;;;;;;8.60;5.50;;;;;;;3.36;83.53;98800.41;105846;1259;60423;-76
2023/03/10 10:46:35;;;;;;;8.10;5.10;;;;;;;3.37;83.35;98804.95;105186;1263;74492;-82
2023/03/10 10:49:27;;;;;;;9.30;5.50;;;;;;;3.37;83.19;98812.66;105653;1257;68592;-80
2023/03/10 10:52:00;;;;;;;6.70;4.20;;;;;;;3.36;82.94;98821.55;105077;1268;1003317;-76
2023/03/10 10:54:37;;;;;;;7.10;4.00;;;;;;;3.35;83.04;98810.39;106049;1261;61324;-78
2023/03/10 10:57:19;;;;;;;5.20;4.70;;;;;;;3.36;83.03;98812.77;105794;1257;60458;-79
2023/03/10 10:59:47;;;;;;;4.40;3.90;;;;;;;3.34;83.01;98801.97;105779;1258;73746;-80
2023/03/10 11:02:33;;;;;;;4.00;3.60;;;;;;;3.34;83.03;98795.59;105663;1264;69767;-74
2023/03/10 11:05:10;;;;;;;5.50;4.90;;;;;;;3.36;82.79;98785.90;105834;1257;71992;-74
2023/03/10 11:07:40;;;;;;;4.30;3.80;;;;;;;3.37;82.96;98775.14;105596;1260;60483;-75
2023/03/10 11:10:25;;;;;;;5.00;3.70;;;;;;;3.46;83.01;98769.47;105749;1256;61975;-74
2023/03/10 11:13:00;;;;;;;4.10;3.50;;;;;;;3.52;82.37;98765.36;105715;1259;73538;-73
2023/03/10 11:15:40;;;;;;;5.80;4.60;;;;;;;3.50;82.40;98772.92;105678;1260;69425;-73
2023/03/10 11:18:16;;;;;;;5.70;5.20;;;;;;;3.48;82.72;98775.80;105695;1257;73576;-78
2023/03/10 11:21:09;;;;;;;9.50;5.40;;;;;;;3.53;83.17;98769.96;105631;1261;63068;-73
2023/03/10 11:23:41;;;;;;;6.70;5.20;;;;;;;3.65;83.33;98774.33;105831;1260;60471;-73
2023/03/10 11:26:21;;;;;;;10.10;6.00;;;;;;;3.73;83.08;98781.83;105707;1261;74389;-73
2023/03/10 11:28:53;;;;;;;5.20;4.40;;;;;;;3.79;82.95;98781.24;105756;1258;68784;-76
2023/03/10 11:31:40;;;;;;;7.90;4.70;;;;;;;3.84;83.06;98782.25;105577;1258;73261;-77
2023/03/10 11:34:17;;;;;;;5.20;4.70;;;;;;;3.89;82.65;98783.04;105724;1257;60434;-76
2023/03/10 11:36:51;;;;;;;9.90;5.70;;;;;;;3.89;82.54;98785.30;105646;1260;60380;-74
2023/03/10 11:39:43;;;;;;;6.40;4.10;;;;;;;3.86;82.28;98783.13;105990;1258;75924;-77
2023/03/10 11:42:11;;;;;;;7.60;4.40;;;;;;;3.84;82.52;98778.04;105694;1257;69663;-73
2023/03/10 11:44:56;;;;;;;4.90;3.70;;;;;;;3.87;82.47;98778.80;105760;1261;74529;-77
2023/03/10 11:47:43;;;;;;;5.10;4.00;;;;;;;3.96;82.63;98766.89;105802;1260;60281;-76